Time;durP1;ratioP1;P1;durP2;ratioP2;P2;SDS_P1;SDS_P2;PMS_P1;PMS_P2;Temp;Humidity;BMP_temperature;BMP_pressure;BME280_temperature;BME280_humidity;BME280_pressure;Samples;Min_cycle;Max_cycle;Signal;HPM_P1;HPM_P2
2021/12/06 00:01:05;;;;;;;22.37;15.50;;;6.10;73.00;;;9.19;55.63;101239.88;4936479;29;20194;-51
2021/12/06 00:03:40;;;;;;;19.63;14.67;;;6.20;72.60;;;9.17;55.65;101244.44;4936185;29;20266;-51
2021/12/06 00:06:09;;;;;;;22.30;15.67;;;6.10;72.70;;;9.21;56.13;101249.25;4936188;29;20280;-51
2021/12/06 00:08:37;;;;;;;21.43;15.73;;;6.10;73.20;;;9.22;56.06;101250.88;4936163;29;20292;-47
2021/12/06 00:11:08;;;;;;;22.53;15.97;;;6.10;73.00;;;9.27;56.20;101253.88;4936012;29;20234;-48
2021/12/06 00:13:38;;;;;;;23.50;15.67;;;6.20;73.10;;;9.26;55.48;101249.59;4936307;29;20640;-50
2021/12/06 00:16:09;;;;;;;22.63;15.67;;;6.20;72.70;;;9.24;55.71;101243.69;4919098;29;20194;-47
2021/12/06 00:18:39;;;;;;;23.00;16.53;;;6.20;73.30;;;9.19;55.71;101245.94;4936029;29;20217;-47
2021/12/06 00:21:07;;;;;;;22.27;16.10;;;6.10;72.30;;;9.15;55.83;101249.84;4936773;29;20194;-46
2021/12/06 00:23:36;;;;;;;22.63;15.23;;;6.10;73.20;;;9.11;55.74;101247.66;4935846;29;20653;-47
2021/12/06 00:26:06;;;;;;;23.13;15.83;;;6.10;72.40;;;9.07;56.17;101247.16;4935971;29;20206;-49
2021/12/06 00:28:34;;;;;;;24.07;16.27;;;6.10;72.70;;;9.06;56.04;101249.94;4935581;29;20224;-50
2021/12/06 00:31:03;;;;;;;26.43;16.97;;;6.00;72.70;;;9.05;56.26;101254.38;4937623;29;20200;-49
2021/12/06 00:33:30;;;;;;;20.40;14.37;;;6.00;73.00;;;9.06;55.79;101256.00;4939328;29;20229;-48
2021/12/06 00:36:06;;;;;;;24.53;16.47;;;6.00;73.00;;;9.06;55.86;101263.06;4939537;29;20194;-49
2021/12/06 00:38:35;;;;;;;23.10;15.53;;;6.00;73.10;;;9.08;55.77;101269.00;4939244;29;20294;-48
2021/12/06 00:41:04;;;;;;;25.13;16.50;;;6.00;73.20;;;9.09;55.89;101281.97;4939709;29;20190;-47
2021/12/06 00:43:32;;;;;;;22.87;15.73;;;6.00;73.00;;;9.11;56.05;101274.75;4950604;29;20222;-48
2021/12/06 00:46:00;;;;;;;22.33;15.17;;;6.00;73.10;;;9.15;56.04;101276.09;4940755;29;20229;-47
2021/12/06 00:48:28;;;;;;;24.60;17.03;;;6.10;73.30;;;9.20;56.39;101284.34;4939054;29;20218;-47
2021/12/06 00:50:55;;;;;;;21.70;15.57;;;6.10;74.00;;;9.20;55.69;101281.72;4939550;29;20215;-47
2021/12/06 00:53:24;;;;;;;21.97;16.23;;;6.10;73.00;;;9.20;56.15;101279.09;4939662;29;20277;-47
2021/12/06 00:55:52;;;;;;;23.33;16.23;;;6.10;72.80;;;9.18;55.68;101286.31;4939587;29;20200;-47
2021/12/06 00:58:19;;;;;;;22.93;15.57;;;6.10;72.70;;;9.20;55.78;101289.59;4938819;29;20219;-47
2021/12/06 01:00:51;;;;;;;22.67;16.33;;;6.10;72.80;;;9.22;55.48;101295.53;4938994;29;20218;-48
2021/12/06 01:03:22;;;;;;;21.80;15.20;;;6.10;72.80;;;9.23;55.48;101294.56;4922770;29;20228;-46
2021/12/06 01:05:51;;;;;;;23.00;16.43;;;6.10;72.80;;;9.21;55.93;101295.69;4939265;29;20525;-46
2021/12/06 01:08:19;;;;;;;23.70;16.03;;;6.20;72.60;;;9.22;55.52;101297.34;4938662;29;20224;-47
2021/12/06 01:10:50;;;;;;;22.50;15.63;;;6.10;72.60;;;9.24;55.78;101306.72;4939036;29;20209;-47
2021/12/06 01:13:19;;;;;;;25.97;16.27;;;6.20;72.80;;;9.28;55.79;101302.81;4921844;29;20315;-47
2021/12/06 01:15:47;;;;;;;23.80;15.73;;;6.20;72.70;;;9.29;55.49;101301.00;4939284;29;20196;-46
2021/12/06 01:18:18;;;;;;;23.13;15.87;;;6.20;72.90;;;9.29;55.55;101304.47;4939074;29;20219;-48
2021/12/06 01:20:55;;;;;;;21.30;15.50;;;6.20;72.60;;;9.31;55.32;101305.13;4922784;29;20212;-47
2021/12/06 01:23:28;;;;;;;24.87;16.37;;;6.20;72.80;;;9.33;55.34;101311.06;4938637;29;20192;-47
2021/12/06 01:33:52;;;;;;;27.37;18.30;;;6.20;71.80;;;9.22;55.36;101313.09;4938664;29;20228;-47
2021/12/06 01:39:15;;;;;;;26.93;17.90;;;6.20;71.70;;;9.06;55.33;101316.38;4938337;29;20712;-47
2021/12/06 01:41:50;;;;;;;28.87;17.40;;;6.10;71.90;;;9.02;55.97;101322.94;4921479;29;20193;-48
2021/12/06 01:44:22;;;;;;;26.03;17.33;;;6.10;72.30;;;9.06;55.91;101324.28;4920949;29;20196;-47
2021/12/06 01:46:53;;;;;;;30.77;19.20;;;6.00;72.60;;;9.07;55.46;101323.31;4937762;29;20204;-47
2021/12/06 01:49:27;;;;;;;28.00;18.17;;;6.00;72.40;;;9.09;55.82;101313.47;4938314;29;20527;-47
2021/12/06 01:52:00;;;;;;;26.83;17.97;;;6.00;72.50;;;9.12;55.59;101307.09;4938585;29;20199;-47
2021/12/06 01:54:28;;;;;;;30.57;19.13;;;6.00;72.70;;;9.15;55.72;101304.19;4938415;29;20695;-47
2021/12/06 01:56:57;;;;;;;29.73;19.10;;;6.00;72.60;;;9.16;55.70;101308.44;4937618;29;20201;-48
2021/12/06 01:59:25;;;;;;;30.50;17.27;;;6.00;72.40;;;9.15;55.24;101306.81;4938215;29;20190;-48
2021/12/06 02:01:53;;;;;;;24.73;16.90;;;6.10;72.50;;;9.13;55.35;101314.81;4937698;29;20564;-46
2021/12/06 02:04:22;;;;;;;26.53;17.57;;;6.00;72.40;;;9.13;55.35;101298.25;4938387;29;20270;-45
2021/12/06 02:06:50;;;;;;;26.93;18.37;;;6.00;72.40;;;9.14;55.95;101303.34;4938950;29;20274;-47
2021/12/06 02:09:19;;;;;;;27.07;17.57;;;6.00;72.60;;;9.14;55.48;101300.72;4938673;29;20196;-46
2021/12/06 02:11:47;;;;;;;27.67;17.63;;;6.00;72.70;;;9.19;56.04;101308.16;4939089;29;20286;-46
2021/12/06 02:14:26;;;;;;;30.23;18.53;;;6.00;72.90;;;9.21;55.50;101309.66;4939171;29;20222;-47
2021/12/06 02:19:35;;;;;;;34.77;20.27;;;6.10;73.60;;;9.23;55.33;101315.56;4938948;29;20190;-47
2021/12/06 02:22:06;;;;;;;27.13;18.47;;;6.10;72.70;;;9.20;55.46;101318.47;4938574;29;20199;-46
2021/12/06 02:24:37;;;;;;;28.33;18.07;;;6.10;72.50;;;9.18;55.25;101316.97;4939020;29;20597;-46
2021/12/06 02:27:07;;;;;;;29.80;18.90;;;6.10;72.70;;;9.13;55.53;101314.00;4937585;29;20189;-49
2021/12/06 02:29:35;;;;;;;28.97;18.30;;;6.10;72.50;;;9.12;55.47;101320.22;4938135;29;20322;-46
2021/12/06 02:32:09;;;;;;;28.70;19.40;;;6.10;72.60;;;9.11;55.43;101326.44;4937458;29;20200;-47
2021/12/06 02:34:39;;;;;;;27.17;18.57;;;6.00;72.50;;;9.12;55.77;101328.94;4937614;29;20229;-47
2021/12/06 02:37:09;;;;;;;24.73;16.50;;;6.00;72.80;;;9.14;55.82;101326.97;4936723;29;20280;-48
2021/12/06 02:39:38;;;;;;;25.93;17.47;;;6.00;72.70;;;9.18;55.55;101327.50;4937675;29;20276;-47
2021/12/06 02:42:11;;;;;;;27.67;18.27;;;6.00;72.90;;;9.22;55.63;101327.03;4937322;29;20659;-47
2021/12/06 02:44:39;;;;;;;28.27;18.10;;;6.10;73.10;;;9.26;55.86;101335.44;4937426;29;20206;-47
2021/12/06 02:47:06;;;;;;;24.27;17.10;;;6.10;73.00;;;9.26;55.73;101336.28;4920288;29;20705;-48
2021/12/06 02:49:34;;;;;;;30.37;19.73;;;6.10;72.80;;;9.26;55.78;101345.94;4937254;29;20198;-49
2021/12/06 02:52:03;;;;;;;26.70;18.87;;;6.20;72.60;;;9.25;55.71;101355.63;4937853;29;20227;-48
2021/12/06 02:54:33;;;;;;;28.73;18.40;;;6.20;72.70;;;9.27;55.29;101358.13;4936145;29;20303;-50
2021/12/06 02:59:41;;;;;;;31.23;18.70;;;6.20;72.50;;;9.24;55.67;101359.25;4937282;29;20198;-48
2021/12/06 03:02:19;;;;;;;26.60;17.53;;;6.20;72.40;;;9.16;55.26;101361.78;4937428;29;20202;-49
2021/12/06 03:04:47;;;;;;;25.43;18.03;;;6.10;71.90;;;9.14;55.68;101363.75;4937180;29;20197;-48
2021/12/06 03:07:20;;;;;;;27.10;17.50;;;6.10;72.10;;;9.13;55.81;101367.34;4920417;29;20217;-48
2021/12/06 03:09:52;;;;;;;26.87;17.90;;;6.10;72.20;;;9.14;55.41;101369.00;4936959;29;20199;-48
2021/12/06 03:12:22;;;;;;;25.90;18.67;;;6.10;72.30;;;9.13;55.30;101366.53;4919524;29;20206;-48
2021/12/06 03:14:53;;;;;;;26.30;19.20;;;6.10;72.10;;;9.10;55.44;101362.41;4937433;29;20223;-47
2021/12/06 03:17:23;;;;;;;26.60;18.37;;;6.10;72.20;;;9.06;55.22;101365.44;4937311;29;20293;-47
2021/12/06 03:19:52;;;;;;;26.70;19.10;;;6.00;71.80;;;9.00;55.49;101361.63;4941307;29;20243;-48
2021/12/06 03:22:20;;;;;;;24.53;17.63;;;6.00;71.70;;;8.96;55.54;101360.28;4940503;29;20264;-48
2021/12/06 03:24:50;;;;;;;23.90;17.23;;;6.00;71.90;;;8.89;55.67;101353.97;4936643;29;20203;-47
2021/12/06 03:27:18;;;;;;;24.33;17.33;;;6.00;71.90;;;8.87;55.69;101355.91;4936296;29;20215;-50
2021/12/06 03:29:47;;;;;;;24.67;17.43;;;5.90;72.00;;;8.85;56.03;101363.09;4936284;29;20298;-47
2021/12/06 03:32:14;;;;;;;24.73;17.73;;;5.90;72.20;;;8.82;55.68;101363.41;4936163;29;20661;-49
2021/12/06 03:34:43;;;;;;;25.07;17.27;;;5.80;72.10;;;8.82;55.80;101368.66;4936672;29;20296;-48
2021/12/06 03:37:11;;;;;;;25.30;18.17;;;5.80;72.50;;;8.86;55.75;101372.66;4935989;29;20199;-47
2021/12/06 03:39:43;;;;;;;23.03;16.50;;;5.80;72.70;;;8.89;55.92;101377.56;4936391;29;20199;-48
2021/12/06 03:42:18;;;;;;;24.77;18.23;;;5.80;72.60;;;8.90;55.55;101381.88;4936899;29;20276;-50
2021/12/06 03:44:45;;;;;;;25.87;16.73;;;5.90;72.30;;;8.95;55.87;101389.28;4919603;29;20287;-47
2021/12/06 03:47:19;;;;;;;25.37;17.37;;;5.90;72.60;;;8.98;55.55;101379.34;4936054;29;20300;-50
2021/12/06 03:49:47;;;;;;;23.80;17.03;;;5.90;72.40;;;8.98;55.44;101376.72;4936665;29;20542;-47
2021/12/06 03:52:14;;;;;;;23.63;17.60;;;5.90;72.20;;;8.97;55.51;101382.94;4937547;29;20214;-48
2021/12/06 03:54:43;;;;;;;22.33;16.80;;;5.90;71.90;;;8.94;55.26;101385.84;4937566;29;20223;-46
2021/12/06 03:57:13;;;;;;;27.17;18.07;;;5.90;72.00;;;8.94;55.39;101383.22;4936756;29;20192;-46
2021/12/06 03:59:40;;;;;;;24.47;16.40;;;5.90;72.00;;;8.94;55.38;101392.91;4936757;29;20200;-47
2021/12/06 04:02:08;;;;;;;25.67;17.83;;;5.90;72.00;;;8.95;55.28;101395.38;4936687;29;20194;-46
2021/12/06 04:04:36;;;;;;;26.80;17.23;;;5.90;72.00;;;8.89;55.14;101395.94;4936352;29;20354;-47
2021/12/06 04:07:04;;;;;;;25.27;17.70;;;5.90;71.50;;;8.84;55.19;101403.47;4939210;29;20195;-48
2021/12/06 04:09:32;;;;;;;25.00;17.47;;;5.80;71.50;;;8.82;55.40;101400.13;4923430;29;20198;-47
2021/12/06 04:11:59;;;;;;;23.87;17.53;;;5.80;71.50;;;8.79;55.24;101395.22;4940005;29;20203;-48
2021/12/06 04:14:28;;;;;;;24.57;17.93;;;5.80;71.60;;;8.77;55.27;101407.66;4922940;29;20233;-47
2021/12/06 04:16:55;;;;;;;25.43;18.50;;;5.80;71.50;;;8.77;55.18;101407.66;4939290;29;20302;-46
2021/12/06 04:19:23;;;;;;;27.17;18.83;;;5.80;71.60;;;8.76;55.11;101406.00;4939634;29;20204;-49
2021/12/06 04:21:51;;;;;;;26.17;17.83;;;5.70;71.30;;;8.75;55.61;101422.69;4939295;29;20725;-47
2021/12/06 04:24:18;;;;;;;26.70;18.63;;;5.70;71.60;;;8.76;55.27;101419.09;4939876;29;20583;-48
2021/12/06 04:26:46;;;;;;;25.87;18.83;;;5.70;71.70;;;8.75;55.47;101422.69;4939419;29;20668;-48
2021/12/06 04:29:14;;;;;;;20.97;16.30;;;5.70;71.60;;;8.73;55.21;101420.22;4939318;29;20238;-46
2021/12/06 04:31:48;;;;;;;25.57;18.43;;;5.70;71.60;;;8.70;55.28;101417.88;4939676;29;20196;-47
2021/12/06 04:34:16;;;;;;;25.47;17.70;;;5.70;71.30;;;8.68;55.47;101417.22;4939741;29;20201;-47
2021/12/06 04:36:46;;;;;;;25.70;18.23;;;5.70;71.40;;;8.68;55.43;101426.88;4940035;29;20276;-49
2021/12/06 04:39:18;;;;;;;24.00;17.33;;;5.70;71.50;;;8.67;55.47;101423.44;4940299;29;20260;-47
2021/12/06 04:41:46;;;;;;;26.03;19.23;;;5.60;71.60;;;8.68;54.91;101425.09;4939642;29;20333;-48
2021/12/06 04:44:15;;;;;;;24.37;18.10;;;5.60;71.60;;;8.69;55.36;101432.00;4938983;29;20283;-45
2021/12/06 04:46:44;;;;;;;26.70;18.80;;;5.60;71.70;;;8.70;55.57;101435.44;4939037;29;20212;-46
2021/12/06 04:49:12;;;;;;;26.50;18.60;;;5.60;71.80;;;8.70;55.64;101432.81;4938923;29;20217;-45
2021/12/06 04:51:44;;;;;;;26.50;18.37;;;5.60;71.80;;;8.69;55.57;101436.41;4938595;29;20205;-46
2021/12/06 04:54:14;;;;;;;29.13;19.63;;;5.70;71.70;;;8.68;55.15;101440.81;4922183;29;20199;-47
2021/12/06 04:56:48;;;;;;;25.97;18.53;;;5.60;71.70;;;8.66;55.31;101442.78;4939060;29;20229;-46
2021/12/06 04:59:23;;;;;;;25.17;17.67;;;5.60;71.80;;;8.68;55.68;101445.25;4939542;29;20223;-45
2021/12/06 05:01:57;;;;;;;27.97;19.50;;;5.60;71.90;;;8.71;55.47;101460.69;4939276;29;20221;-47
2021/12/06 05:04:32;;;;;;;26.63;17.93;;;5.70;71.90;;;8.71;55.18;101456.28;4938972;29;20224;-46
2021/12/06 05:07:08;;;;;;;27.80;19.07;;;5.70;71.70;;;8.72;55.20;101457.13;4938649;29;20678;-48
2021/12/06 05:09:38;;;;;;;29.07;20.20;;;5.70;71.80;;;8.71;55.01;101455.44;4938834;29;20195;-51
2021/12/06 05:12:11;;;;;;;25.57;19.13;;;5.70;71.60;;;8.67;55.35;101451.47;4939191;29;20204;-48
2021/12/06 05:14:40;;;;;;;28.93;20.30;;;5.70;71.50;;;8.67;55.51;101454.09;4938516;29;20229;-48
2021/12/06 05:17:09;;;;;;;27.17;17.50;;;5.60;71.60;;;8.70;55.24;101464.31;4938074;29;20198;-47
2021/12/06 05:19:37;;;;;;;27.07;18.30;;;5.60;71.90;;;8.74;55.28;101463.03;4938829;29;20654;-47
2021/12/06 05:22:05;;;;;;;23.93;17.17;;;5.60;71.90;;;8.79;55.66;101466.88;4938404;29;20553;-50
2021/12/06 05:24:33;;;;;;;28.60;19.23;;;5.70;72.20;;;8.81;55.12;101467.56;4938708;29;20200;-47
2021/12/06 05:27:00;;;;;;;23.70;17.80;;;5.70;71.90;;;8.83;55.20;101467.41;4938005;29;20683;-47
2021/12/06 05:29:30;;;;;;;29.23;18.37;;;5.70;71.80;;;8.83;55.06;101470.03;4938642;29;20207;-47
2021/12/06 05:31:59;;;;;;;27.13;18.40;;;5.70;71.80;;;8.85;55.05;101470.72;4938103;29;20194;-49
2021/12/06 05:34:37;;;;;;;28.73;19.20;;;5.70;71.80;;;8.85;54.92;101468.94;4938222;29;20202;-49
2021/12/06 05:37:08;;;;;;;26.33;18.57;;;5.70;71.60;;;8.87;54.92;101476.66;4938397;29;20200;-48
2021/12/06 05:39:35;;;;;;;25.03;17.93;;;5.70;71.60;;;8.87;55.23;101487.16;4938246;29;20291;-48
2021/12/06 05:42:07;;;;;;;23.43;17.37;;;5.70;72.00;;;8.91;55.40;101479.81;4938045;29;20206;-48
2021/12/06 05:44:35;;;;;;;26.73;18.43;;;5.70;72.00;;;8.94;55.34;101482.97;4937511;29;20282;-47
2021/12/06 05:47:04;;;;;;;25.03;19.57;;;5.80;72.10;;;8.97;55.11;101490.56;4937536;29;20200;-48
2021/12/06 05:49:33;;;;;;;27.77;19.27;;;5.80;71.80;;;9.00;54.93;101486.81;4938124;29;20594;-47
2021/12/06 05:52:01;;;;;;;28.03;20.47;;;5.80;71.80;;;9.02;54.89;101498.84;4936892;29;20198;-49
2021/12/06 05:54:29;;;;;;;24.93;17.67;;;5.90;71.60;;;9.00;54.80;101492.91;4937576;29;20659;-47
2021/12/06 05:56:58;;;;;;;26.20;17.17;;;5.90;71.40;;;9.01;54.92;101499.78;4939063;29;20284;-46
2021/12/06 05:59:25;;;;;;;26.40;18.57;;;5.90;71.40;;;9.03;54.95;101497.88;4938460;29;20194;-47
2021/12/06 06:01:54;;;;;;;28.77;19.10;;;5.90;71.70;;;9.04;54.70;101498.69;4937499;29;20238;-48
2021/12/06 06:04:25;;;;;;;24.90;18.20;;;5.90;71.50;;;9.02;54.83;101498.84;4938085;29;20203;-47
2021/12/06 06:06:55;;;;;;;28.70;20.13;;;5.90;71.30;;;9.00;54.83;101503.41;4937613;29;20195;-47
2021/12/06 06:09:22;;;;;;;26.40;17.90;;;5.90;71.10;;;9.00;54.80;101513.91;4937492;29;20201;-48
2021/12/06 06:11:50;;;;;;;25.83;19.13;;;5.90;71.30;;;9.01;54.53;101509.50;4937636;29;20286;-46
2021/12/06 06:14:18;;;;;;;26.43;19.17;;;5.90;71.30;;;9.02;54.71;101511.97;4937251;29;20277;-47
2021/12/06 06:16:47;;;;;;;27.83;19.43;;;5.90;72.20;;;9.00;54.53;101513.06;4937657;29;20324;-48
2021/12/06 06:19:17;;;;;;;25.27;17.73;;;5.90;71.30;;;8.98;54.97;101515.84;4937182;29;20220;-49
2021/12/06 06:21:46;;;;;;;28.07;18.83;;;5.90;71.20;;;8.99;54.73;101514.88;4920376;29;20198;-48
2021/12/06 06:24:15;;;;;;;29.47;20.47;;;5.90;71.60;;;9.00;54.88;101519.16;4937343;29;20585;-49
2021/12/06 06:26:42;;;;;;;24.07;18.13;;;5.90;71.60;;;9.00;54.80;101519.16;4937206;29;20261;-49
2021/12/06 06:29:11;;;;;;;27.63;18.90;;;5.90;71.60;;;9.02;54.70;101522.47;4936623;29;20253;-49
2021/12/06 06:31:39;;;;;;;27.17;19.07;;;5.90;71.50;;;9.03;54.89;101534.63;4937346;29;20736;-47
2021/12/06 06:34:07;;;;;;;27.10;19.30;;;5.90;71.50;;;9.06;55.23;101530.84;4937822;29;20199;-47
2021/12/06 06:36:36;;;;;;;30.57;20.70;;;5.90;71.80;;;9.09;54.85;101534.03;4936866;29;20259;-49
2021/12/06 06:39:05;;;;;;;28.83;18.93;;;5.90;71.50;;;9.09;54.81;101528.78;4937384;29;20405;-47
2021/12/06 06:41:35;;;;;;;27.97;18.37;;;6.00;71.40;;;9.12;54.74;101540.81;4937479;29;20660;-48
2021/12/06 06:44:04;;;;;;;28.83;19.40;;;6.00;71.30;;;9.08;54.76;101542.88;4937492;29;20273;-49
2021/12/06 06:46:32;;;;;;;32.80;21.30;;;6.00;71.10;;;9.06;54.43;101543.97;4937889;29;20278;-48
2021/12/06 06:49:00;;;;;;;37.53;26.57;;;5.90;71.00;;;9.02;54.41;101547.88;4938806;29;20711;-48
2021/12/06 06:51:28;;;;;;;29.77;19.87;;;5.90;71.10;;;8.99;54.46;101541.13;4939837;29;20195;-47
2021/12/06 06:53:57;;;;;;;35.53;23.93;;;5.90;71.10;;;8.96;55.26;101528.31;4940056;29;20222;-48
2021/12/06 06:56:24;;;;;;;29.27;21.43;;;5.80;71.90;;;8.91;54.67;101530.53;4938819;29;20210;-49
2021/12/06 06:59:03;;;;;;;35.67;21.70;;;5.90;71.10;;;8.84;54.91;101527.63;4938420;29;20266;-50
2021/12/06 07:01:31;;;;;;;34.43;21.47;;;5.80;71.30;;;8.79;55.04;101521.97;4936905;29;20227;-49
2021/12/06 07:03:59;;;;;;;31.77;21.93;;;5.80;71.40;;;8.74;55.50;101515.53;4936463;29;20624;-47
2021/12/06 07:06:28;;;;;;;34.10;22.87;;;5.80;71.60;;;8.70;55.53;101522.03;4936784;29;20229;-48
2021/12/06 07:08:58;;;;;;;36.93;24.60;;;5.70;71.60;;;8.65;55.63;101519.03;4935939;29;20983;-48
2021/12/06 07:11:27;;;;;;;35.30;24.87;;;5.70;71.80;;;8.62;55.99;101521.91;4935249;29;20586;-47
2021/12/06 07:13:56;;;;;;;36.37;23.47;;;5.70;72.00;;;8.56;55.92;101520.69;4930091;29;20830;-49
2021/12/06 07:16:26;;;;;;;39.63;26.57;;;5.60;72.00;;;8.55;56.27;101521.66;4917698;29;20320;-49
2021/12/06 07:18:54;;;;;;;34.47;23.33;;;5.60;72.20;;;8.55;56.22;101520.84;4933373;29;20220;-48
2021/12/06 07:21:25;;;;;;;35.80;23.70;;;5.60;72.30;;;8.55;56.08;101526.09;4936785;29;20270;-47
2021/12/06 07:23:53;;;;;;;37.43;25.03;;;5.60;72.30;;;8.55;56.26;101531.31;4935195;29;20224;-48
2021/12/06 07:26:22;;;;;;;38.43;24.43;;;5.60;72.50;;;8.56;56.14;101530.34;4936283;29;20192;-47
2021/12/06 07:28:55;;;;;;;38.90;24.93;;;5.60;72.50;;;8.57;56.23;101532.00;4935453;29;20250;-47
2021/12/06 07:31:28;;;;;;;34.17;23.20;;;5.60;73.30;;;8.59;56.27;101535.31;4935871;29;20194;-49
2021/12/06 07:33:58;;;;;;;36.10;23.17;;;5.60;72.50;;;8.61;55.82;101530.75;4903109;29;20242;-49
2021/12/06 07:36:28;;;;;;;34.13;22.73;;;5.60;72.60;;;8.61;56.24;101533.38;4903094;29;20208;-47
2021/12/06 07:38:56;;;;;;;36.03;23.67;;;5.60;72.40;;;8.62;56.11;101535.88;4933538;29;20214;-47
2021/12/06 07:41:28;;;;;;;40.73;25.47;;;5.60;72.50;;;8.68;56.10;101539.69;4930431;29;20250;-49
2021/12/06 07:43:56;;;;;;;44.13;25.43;;;5.60;72.50;;;8.68;55.95;101548.41;4925884;29;20230;-48
2021/12/06 07:46:25;;;;;;;36.20;23.40;;;5.60;72.30;;;8.68;55.69;101534.47;4935242;29;20192;-48
2021/12/06 07:48:54;;;;;;;40.23;25.53;;;5.60;72.40;;;8.66;55.87;101521.50;4931221;29;20243;-47
2021/12/06 07:51:24;;;;;;;40.63;24.43;;;5.60;72.40;;;8.65;56.24;101519.03;4932621;29;20198;-47
2021/12/06 07:53:53;;;;;;;39.83;24.20;;;5.60;72.40;;;8.64;56.36;101509.47;4936039;29;20241;-47
2021/12/06 07:56:21;;;;;;;38.80;22.90;;;5.60;72.50;;;8.62;55.78;101514.03;4929673;29;20294;-48
2021/12/06 07:58:50;;;;;;;34.83;22.93;;;5.60;72.30;;;8.61;55.95;101507.97;4923514;29;20266;-48
2021/12/06 08:01:18;;;;;;;38.67;24.23;;;5.60;72.30;;;8.60;56.04;101516.81;4934378;29;20199;-48
2021/12/06 08:03:47;;;;;;;33.63;22.40;;;5.60;72.30;;;8.58;55.35;101508.25;4931584;29;20226;-47
2021/12/06 08:06:16;;;;;;;44.37;26.43;;;5.60;72.10;;;8.58;55.98;101513.50;4918442;29;20205;-49
2021/12/06 08:08:44;;;;;;;40.10;24.37;;;5.60;72.30;;;8.56;56.13;101498.84;4936943;29;20219;-47
2021/12/06 08:11:16;;;;;;;37.13;23.57;;;5.60;72.20;;;8.53;55.91;101494.75;4935744;29;20223;-48
2021/12/06 08:13:50;;;;;;;39.20;24.60;;;5.60;72.30;;;8.51;56.37;101493.25;4936515;29;20199;-46
2021/12/06 08:16:21;;;;;;;34.57;22.37;;;5.60;72.20;;;8.51;56.15;101501.09;4936060;29;20315;-48
2021/12/06 08:18:50;;;;;;;36.40;23.73;;;5.60;72.10;;;8.49;56.27;101497.78;4913969;29;20223;-50
2021/12/06 08:21:22;;;;;;;40.90;25.50;;;5.60;72.10;;;8.47;56.20;101489.22;4916708;29;20266;-48
2021/12/06 08:23:51;;;;;;;37.73;23.67;;;5.60;72.10;;;8.48;56.15;101485.66;4934314;29;20233;-47
2021/12/06 08:26:23;;;;;;;36.80;23.67;;;5.60;72.00;;;8.47;55.91;101489.22;4934641;29;20219;-48
2021/12/06 08:28:52;;;;;;;37.83;23.63;;;5.60;72.00;;;8.48;55.96;101490.91;4934417;29;20262;-47
2021/12/06 08:31:22;;;;;;;36.30;23.83;;;5.60;71.90;;;8.46;56.32;101504.13;4936438;29;20199;-46
2021/12/06 08:33:52;;;;;;;34.40;22.63;;;5.60;71.70;;;8.45;55.86;101492.00;4936293;29;20243;-48
2021/12/06 08:36:24;;;;;;;34.17;22.60;;;5.60;71.40;;;8.45;55.58;101491.16;4932076;29;20216;-45
2021/12/06 08:38:53;;;;;;;28.23;19.77;;;5.60;71.20;;;8.48;55.94;101490.91;4934562;29;20223;-47
2021/12/06 08:41:25;;;;;;;37.73;22.53;;;5.70;71.40;;;8.49;55.60;101503.84;4927242;29;20577;-46
2021/12/06 08:43:55;;;;;;;37.17;24.40;;;5.70;71.10;;;8.53;55.79;101504.41;4919632;29;20206;-48
2021/12/06 08:46:29;;;;;;;34.43;22.53;;;5.70;71.20;;;8.54;55.70;101500.81;4918772;29;20262;-47
2021/12/06 08:48:58;;;;;;;37.85;27.70;;;5.70;71.10;;;8.85;55.26;101504.84;4915811;29;20886;-48
2021/12/06 08:51:35;;;;;;;38.33;24.67;;;5.70;71.50;;;8.87;55.21;101518.66;4917068;29;20575;-46
2021/12/06 08:54:05;;;;;;;36.00;23.23;;;5.80;71.60;;;8.76;55.12;101511.78;4921458;29;20553;-46
2021/12/06 08:56:34;;;;;;;37.03;24.17;;;5.80;71.00;;;8.75;55.46;101514.53;4921284;29;20716;-46
2021/12/06 08:59:03;;;;;;;35.73;22.00;;;5.80;71.20;;;8.73;55.19;101511.25;4920214;29;20316;-47
2021/12/06 09:01:31;;;;;;;39.10;24.10;;;5.90;71.20;;;8.75;55.73;101517.16;4919095;29;20545;-48
2021/12/06 09:04:19;;;;;;;33.07;21.77;;;5.90;71.20;;;8.76;55.38;101521.47;4919182;29;20191;-47
2021/12/06 09:06:51;;;;;;;36.03;22.43;;;5.90;71.20;;;8.79;55.40;101523.81;4923077;29;20295;-47
2021/12/06 09:09:21;;;;;;;33.73;22.07;;;5.90;71.10;;;8.85;55.60;101531.09;4920657;29;20865;-48
2021/12/06 09:11:49;;;;;;;37.03;21.93;;;5.90;71.00;;;8.89;55.18;101532.44;4919964;29;20213;-47
2021/12/06 09:14:17;;;;;;;33.93;21.97;;;6.00;71.10;;;8.92;55.44;101532.16;4917811;29;20214;-49
2021/12/06 09:16:46;;;;;;;35.53;22.63;;;6.00;71.10;;;8.95;55.29;101539.75;4920333;29;20238;-51
2021/12/06 09:19:16;;;;;;;40.87;25.33;;;6.00;71.10;;;9.03;55.46;101539.88;4919779;29;20226;-48
2021/12/06 09:21:44;;;;;;;38.80;24.97;;;6.00;71.20;;;9.06;55.01;101538.75;4890390;29;20574;-47
2021/12/06 09:24:18;;;;;;;36.57;22.40;;;6.10;71.00;;;9.06;54.91;101550.06;4917538;29;20222;-46
2021/12/06 09:26:47;;;;;;;34.27;23.33;;;6.10;70.90;;;9.09;55.25;101549.78;4932994;29;20278;-46
2021/12/06 09:29:15;;;;;;;39.10;23.10;;;6.10;71.00;;;9.11;54.53;101558.34;4934315;29;20322;-47
2021/12/06 09:31:43;;;;;;;44.47;26.63;;;6.20;70.80;;;9.14;54.58;101551.97;4930591;29;20199;-46
2021/12/06 09:34:11;;;;;;;54.30;34.20;;;6.20;70.70;;;9.19;54.54;101549.75;4933077;29;20218;-46
2021/12/06 09:36:38;;;;;;;37.47;24.57;;;6.20;70.90;;;9.25;54.43;101543.91;4935045;29;20294;-46
2021/12/06 09:39:07;;;;;;;39.13;24.40;;;6.20;70.80;;;9.24;54.69;101543.09;4927482;29;20588;-47
2021/12/06 09:41:36;;;;;;;34.93;22.10;;;6.30;70.60;;;9.23;54.69;101533.56;4913964;29;20198;-49
2021/12/06 09:44:06;;;;;;;37.33;25.87;;;6.30;70.40;;;9.17;53.95;101536.78;4912285;29;20208;-46
2021/12/06 09:46:36;;;;;;;35.77;23.80;;;6.30;69.90;;;9.12;54.49;101531.13;4913510;29;20206;-47
2021/12/06 09:49:09;;;;;;;37.77;24.90;;;6.30;69.90;;;9.06;54.31;101523.81;4909158;29;20319;-46
2021/12/06 09:51:40;;;;;;;34.37;22.53;;;6.30;69.50;;;9.06;54.50;101520.34;4891803;29;20198;-48
2021/12/06 09:54:09;;;;;;;33.57;22.50;;;6.30;69.60;;;9.03;54.64;101513.63;4912989;29;20204;-48
2021/12/06 09:56:42;;;;;;;32.97;22.73;;;6.30;69.80;;;9.04;54.48;101503.94;4907480;29;20339;-46
2021/12/06 09:59:15;;;;;;;37.20;22.33;;;6.30;69.80;;;9.08;54.47;101502.69;4912851;29;20322;-49
2021/12/06 10:01:50;;;;;;;35.07;23.33;;;6.20;70.00;;;9.03;54.08;101497.03;4913083;29;20234;-49
2021/12/06 10:04:21;;;;;;;36.83;22.87;;;6.20;69.50;;;8.94;54.50;101493.47;4910064;29;20204;-48
2021/12/06 10:06:50;;;;;;;35.27;22.87;;;6.20;69.20;;;8.95;54.83;101481.19;4890371;29;20209;-47
2021/12/06 10:09:20;;;;;;;37.30;22.83;;;6.20;69.70;;;8.98;55.17;101475.66;4916041;29;20212;-47
2021/12/06 10:11:53;;;;;;;33.33;22.67;;;6.20;69.90;;;8.98;54.51;101467.75;4929785;29;20203;-47
2021/12/06 10:14:23;;;;;;;37.33;22.13;;;6.20;69.70;;;8.98;54.66;101457.28;4913656;29;20212;-49
2021/12/06 10:16:51;;;;;;;32.77;22.67;;;6.20;69.40;;;9.00;54.88;101461.41;4909642;29;20227;-47
2021/12/06 10:19:21;;;;;;;33.27;21.77;;;6.30;69.70;;;9.03;54.89;101460.28;4928558;29;20214;-50
2021/12/06 10:21:49;;;;;;;37.60;23.23;;;6.30;69.80;;;9.03;54.38;101458.50;4930199;29;20232;-48
2021/12/06 10:24:21;;;;;;;35.87;23.57;;;6.30;69.40;;;8.92;54.10;101461.28;4926920;29;20203;-49
2021/12/06 10:27:02;;;;;;;35.97;21.83;;;6.20;68.80;;;8.83;54.50;101462.16;4918995;29;20228;-50
2021/12/06 10:29:39;;;;;;;38.37;23.27;;;6.20;68.80;;;8.86;55.04;101464.50;4929002;29;20285;-49
2021/12/06 10:32:15;;;;;;;35.47;22.60;;;6.20;69.30;;;8.89;54.79;101453.69;4929254;29;20624;-49
2021/12/06 10:34:50;;;;;;;35.40;22.67;;;6.20;69.30;;;8.91;54.89;101457.03;4930949;29;20220;-47
2021/12/06 10:37:33;;;;;;;34.30;22.43;;;6.20;69.30;;;8.92;54.52;101457.84;4933940;29;20291;-48
2021/12/06 10:40:05;;;;;;;36.80;21.37;;;6.20;69.50;;;8.94;54.85;101451.47;4923915;29;20215;-48